createdAt,value
2022-08-30T00:01:17.032Z,19.30
2022-08-30T00:03:46.445Z,19.20
2022-08-30T00:06:14.884Z,19.30
2022-08-30T00:08:43.729Z,19.30
2022-08-30T00:11:14.938Z,19.20
2022-08-30T00:13:44.907Z,19.20
2022-08-30T00:16:12.634Z,19.20
2022-08-30T00:18:40.969Z,19.10
2022-08-30T00:21:09.109Z,19.20
2022-08-30T00:23:36.512Z,19.10
2022-08-30T00:26:03.902Z,19.10
2022-08-30T00:28:32.328Z,19.10
2022-08-30T00:30:59.406Z,18.80
2022-08-30T00:33:26.374Z,18.90
2022-08-30T00:35:53.312Z,18.90
2022-08-30T00:38:20.310Z,18.90
2022-08-30T00:40:47.342Z,18.80
2022-08-30T00:43:20.122Z,18.80
2022-08-30T00:45:47.715Z,18.90
2022-08-30T00:48:14.694Z,18.70
2022-08-30T00:50:53.351Z,18.60
2022-08-30T00:53:25.992Z,18.50
2022-08-30T00:55:54.053Z,18.40
2022-08-30T00:58:26.212Z,18.40
2022-08-30T01:00:55.357Z,18.50
2022-08-30T01:03:22.577Z,18.50
2022-08-30T01:05:51.639Z,18.60
2022-08-30T01:08:22.295Z,18.50
2022-08-30T01:10:51.486Z,18.60
2022-08-30T01:13:19.857Z,18.60
2022-08-30T01:15:50.780Z,18.50
2022-08-30T01:18:19.135Z,18.50
2022-08-30T01:21:07.359Z,18.50
2022-08-30T01:23:40.725Z,18.40
2022-08-30T01:26:08.627Z,18.30
2022-08-30T01:28:35.886Z,18.40
2022-08-30T01:31:03.278Z,18.40
2022-08-30T01:33:30.790Z,18.30
2022-08-30T01:36:04.669Z,18.30
2022-08-30T01:38:48.343Z,18.20
2022-08-30T01:41:25.797Z,18.20
2022-08-30T01:43:55.234Z,18.10
2022-08-30T01:46:24.818Z,18.10
2022-08-30T01:48:54.467Z,18.00
2022-08-30T01:51:22.195Z,18.00
2022-08-30T01:53:49.124Z,18.10
2022-08-30T01:56:16.672Z,18.20
2022-08-30T01:58:44.306Z,18.30
2022-08-30T02:01:13.890Z,18.40
2022-08-30T02:03:42.500Z,18.40
2022-08-30T02:06:13.311Z,18.40
2022-08-30T02:08:40.850Z,18.40
2022-08-30T02:11:09.584Z,18.40
2022-08-30T02:13:40.173Z,18.40
2022-08-30T02:16:13.781Z,18.40
2022-08-30T02:18:41.326Z,18.40
2022-08-30T02:21:09.280Z,18.40
2022-08-30T02:23:36.931Z,18.40
2022-08-30T02:26:04.969Z,18.40
2022-08-30T02:28:32.106Z,18.40
2022-08-30T02:31:00.333Z,18.40
2022-08-30T02:33:27.508Z,18.40
2022-08-30T02:35:54.643Z,18.40
2022-08-30T02:38:21.888Z,18.30
2022-08-30T02:40:49.097Z,18.30
2022-08-30T02:43:17.230Z,18.40
2022-08-30T02:45:44.321Z,18.30
2022-08-30T02:48:11.616Z,18.30
2022-08-30T02:50:46.422Z,18.30
2022-08-30T02:53:14.168Z,18.30
2022-08-30T02:55:44.269Z,18.30
2022-08-30T02:58:11.593Z,18.40
2022-08-30T03:00:39.602Z,18.40
2022-08-30T03:03:07.645Z,18.30
2022-08-30T03:05:35.242Z,18.30
2022-08-30T03:08:07.131Z,18.30
2022-08-30T03:10:34.132Z,18.20
2022-08-30T03:13:01.147Z,18.20
2022-08-30T03:15:28.201Z,18.20
2022-08-30T03:17:56.393Z,18.20
2022-08-30T03:20:24.037Z,18.10
2022-08-30T03:22:51.460Z,18.10
2022-08-30T03:25:20.874Z,18.00
2022-08-30T03:27:48.622Z,18.00
2022-08-30T03:30:18.733Z,17.90
2022-08-30T03:32:46.230Z,17.80
2022-08-30T03:35:16.840Z,17.70
2022-08-30T03:37:44.094Z,17.70
2022-08-30T03:40:12.914Z,17.90
2022-08-30T03:42:41.481Z,17.80
2022-08-30T03:45:11.205Z,17.80
2022-08-30T03:47:38.138Z,17.80
2022-08-30T03:50:08.588Z,17.80
2022-08-30T03:52:35.605Z,17.70
2022-08-30T03:55:02.548Z,17.80
2022-08-30T03:57:29.929Z,17.80
2022-08-30T03:59:58.376Z,18.00
2022-08-30T04:02:25.390Z,18.20
2022-08-30T04:04:52.376Z,18.10
2022-08-30T04:07:19.436Z,18.00
2022-08-30T04:09:47.364Z,18.00
2022-08-30T04:12:14.356Z,17.90
2022-08-30T04:14:45.819Z,17.90
2022-08-30T04:17:12.854Z,17.80
2022-08-30T04:19:39.805Z,17.80
2022-08-30T04:22:06.811Z,17.90
2022-08-30T04:24:35.090Z,17.90
2022-08-30T04:27:02.070Z,17.90
2022-08-30T04:29:30.491Z,18.00
2022-08-30T04:31:57.476Z,18.00
2022-08-30T04:34:25.086Z,18.10
2022-08-30T04:36:52.129Z,18.10
2022-08-30T04:39:19.755Z,18.10
2022-08-30T04:41:49.082Z,18.20
2022-08-30T04:44:19.185Z,18.30
2022-08-30T04:46:47.154Z,18.40
2022-08-30T04:49:14.296Z,18.50
2022-08-30T04:51:41.471Z,18.60
2022-08-30T04:54:08.586Z,18.60
2022-08-30T04:56:35.803Z,18.60
2022-08-30T04:59:03.220Z,18.60
2022-08-30T05:01:32.235Z,18.50
2022-08-30T05:04:11.517Z,18.60
2022-08-30T05:06:38.447Z,18.50
2022-08-30T05:09:05.721Z,18.60
2022-08-30T05:11:33.170Z,18.70
2022-08-30T05:14:00.209Z,18.60
2022-08-30T05:16:30.275Z,18.60
2022-08-30T05:18:58.137Z,18.60
2022-08-30T05:21:27.744Z,18.70
2022-08-30T05:23:58.373Z,18.70
2022-08-30T05:26:28.224Z,18.80
2022-08-30T05:28:55.293Z,18.90
2022-08-30T05:31:34.532Z,19.00
2022-08-30T05:34:02.414Z,19.00
2022-08-30T05:36:31.861Z,18.90
2022-08-30T05:39:00.588Z,18.90
2022-08-30T05:41:28.395Z,18.80
2022-08-30T05:44:02.021Z,19.00
2022-08-30T05:49:07.033Z,19.40
2022-08-30T05:51:43.206Z,19.50
2022-08-30T05:54:11.259Z,19.70
2022-08-30T05:56:39.925Z,19.70
2022-08-30T05:59:08.232Z,19.70
2022-08-30T06:01:38.514Z,19.90
2022-08-30T06:04:07.179Z,19.90
2022-08-30T06:06:36.634Z,19.90
2022-08-30T06:09:08.126Z,20.00
2022-08-30T06:11:35.674Z,20.20
2022-08-30T06:14:03.711Z,20.20
2022-08-30T06:16:30.836Z,20.10
2022-08-30T06:19:00.215Z,20.20
2022-08-30T06:21:30.497Z,20.20
2022-08-30T06:23:58.934Z,20.20
2022-08-30T06:26:27.030Z,20.40
2022-08-30T06:28:54.400Z,20.70
2022-08-30T06:31:23.389Z,21.10
2022-08-30T06:33:51.855Z,21.30
2022-08-30T06:36:22.287Z,21.50
2022-08-30T06:38:54.517Z,21.70
2022-08-30T06:41:24.867Z,21.70
2022-08-30T06:43:52.725Z,21.80
2022-08-30T06:46:22.886Z,21.60
2022-08-30T06:48:50.426Z,21.50
2022-08-30T06:51:22.403Z,21.50
2022-08-30T06:53:50.880Z,21.40
2022-08-30T06:56:19.462Z,21.30
2022-08-30T06:58:46.931Z,21.30
2022-08-30T07:01:17.057Z,21.40
2022-08-30T07:03:44.557Z,21.40
2022-08-30T07:06:11.838Z,21.30
2022-08-30T07:08:39.362Z,21.30
2022-08-30T07:11:07.753Z,21.30
2022-08-30T07:13:38.042Z,21.30
2022-08-30T07:16:13.289Z,21.40
2022-08-30T07:18:56.404Z,21.50
2022-08-30T07:21:25.095Z,21.60
2022-08-30T07:23:53.774Z,21.80
2022-08-30T07:26:27.812Z,21.90
2022-08-30T07:28:56.503Z,21.80
2022-08-30T07:31:24.768Z,21.60
2022-08-30T07:33:52.571Z,21.60
2022-08-30T07:36:21.843Z,21.50
2022-08-30T07:38:50.630Z,21.30
2022-08-30T07:41:39.020Z,21.30
2022-08-30T07:44:08.195Z,21.20
2022-08-30T07:46:35.779Z,21.30
2022-08-30T07:49:03.888Z,21.30
2022-08-30T07:51:31.335Z,21.20
2022-08-30T07:53:58.976Z,21.40
2022-08-30T07:56:26.501Z,21.70
2022-08-30T07:58:53.616Z,22.10
2022-08-30T08:01:21.715Z,22.20
2022-08-30T08:03:50.450Z,22.30
2022-08-30T08:06:19.758Z,22.50
2022-08-30T08:08:46.897Z,22.70
2022-08-30T08:11:19.092Z,22.60
2022-08-30T08:13:53.036Z,22.70
2022-08-30T08:16:30.817Z,22.90
2022-08-30T08:18:58.673Z,22.90
2022-08-30T08:21:27.248Z,22.90
2022-08-30T08:23:54.516Z,22.90
2022-08-30T08:26:22.615Z,22.90
2022-08-30T08:28:49.661Z,22.80
2022-08-30T08:31:20.903Z,22.40
2022-08-30T08:33:48.105Z,22.00
2022-08-30T08:36:15.575Z,21.80
2022-08-30T08:38:42.705Z,21.60
2022-08-30T08:41:27.866Z,21.50
2022-08-30T08:43:54.869Z,21.40
2022-08-30T08:46:48.471Z,21.60
2022-08-30T08:49:15.974Z,21.60
2022-08-30T08:52:01.779Z,21.70
2022-08-30T08:54:38.939Z,21.80
2022-08-30T08:57:06.120Z,21.80
2022-08-30T08:59:33.142Z,21.80
2022-08-30T09:02:03.145Z,21.80
2022-08-30T09:04:37.929Z,21.80
2022-08-30T09:07:23.336Z,21.80
2022-08-30T09:09:50.537Z,21.80
2022-08-30T09:12:17.663Z,21.70
2022-08-30T09:14:49.760Z,21.60
2022-08-30T09:17:22.201Z,21.60
2022-08-30T09:19:52.760Z,21.70
2022-08-30T09:22:42.687Z,21.70
2022-08-30T09:25:13.684Z,21.70
2022-08-30T09:27:45.914Z,21.70
2022-08-30T09:30:28.096Z,21.70
2022-08-30T09:33:00.805Z,21.80
2022-08-30T09:35:36.931Z,21.80
2022-08-30T09:38:05.630Z,22.00
2022-08-30T09:40:37.134Z,22.00
2022-08-30T09:43:17.755Z,22.00
2022-08-30T09:46:05.436Z,22.00
2022-08-30T09:48:44.709Z,22.20
2022-08-30T09:51:11.838Z,22.20
2022-08-30T09:56:51.509Z,22.90
2022-08-30T09:59:37.302Z,22.90
2022-08-30T10:02:18.126Z,22.20
2022-08-30T10:05:15.953Z,21.10
2022-08-30T10:08:08.925Z,20.90
2022-08-30T10:10:45.258Z,20.60
2022-08-30T10:13:37.233Z,20.50
2022-08-30T10:16:11.064Z,20.50
2022-08-30T10:19:06.350Z,20.80
2022-08-30T10:21:41.599Z,21.10
2022-08-30T10:24:20.819Z,21.10
2022-08-30T10:27:02.569Z,21.40
2022-08-30T10:29:42.248Z,21.50
2022-08-30T10:32:28.535Z,21.60
2022-08-30T10:35:03.465Z,21.60
2022-08-30T10:37:35.942Z,21.50
2022-08-30T10:40:31.219Z,21.40
2022-08-30T10:43:02.798Z,21.30
2022-08-30T10:45:33.257Z,21.20
2022-08-30T10:48:16.579Z,21.10
2022-08-30T10:50:51.168Z,21.10
2022-08-30T10:53:37.039Z,21.20
2022-08-30T10:56:08.886Z,21.20
2022-08-30T10:58:38.984Z,21.20
2022-08-30T11:01:51.833Z,21.20
2022-08-30T11:04:52.535Z,21.40
2022-08-30T11:07:48.644Z,21.60
2022-08-30T11:10:40.103Z,21.80
2022-08-30T11:13:18.385Z,21.80
2022-08-30T11:16:08.597Z,21.70
2022-08-30T11:21:39.214Z,21.60
2022-08-30T11:24:16.559Z,21.40
2022-08-30T11:26:49.433Z,21.50
2022-08-30T11:29:34.737Z,21.60
2022-08-30T11:32:14.018Z,21.90
2022-08-30T11:34:46.823Z,22.20
2022-08-30T11:37:43.165Z,22.40
2022-08-30T11:40:20.758Z,22.80
2022-08-30T11:42:49.508Z,23.00
2022-08-30T11:45:24.685Z,23.10
2022-08-30T11:47:54.320Z,22.90
2022-08-30T11:50:54.655Z,22.70
2022-08-30T11:53:55.320Z,22.50
2022-08-30T11:56:31.701Z,22.20
2022-08-30T11:59:09.931Z,22.00
2022-08-30T12:01:46.912Z,21.90
2022-08-30T12:04:24.896Z,21.80
2022-08-30T12:07:04.456Z,21.80
2022-08-30T12:09:33.141Z,21.80
2022-08-30T12:12:37.836Z,21.80
2022-08-30T12:15:05.031Z,21.80
2022-08-30T12:18:16.255Z,21.80
2022-08-30T12:20:47.288Z,21.90
2022-08-30T12:23:35.248Z,22.10
2022-08-30T12:26:20.067Z,22.10
2022-08-30T12:28:49.729Z,22.00
2022-08-30T12:31:22.577Z,22.00
2022-08-30T12:34:01.926Z,22.10
2022-08-30T12:37:00.048Z,22.10
2022-08-30T12:39:31.442Z,22.00
2022-08-30T12:42:23.318Z,21.70
2022-08-30T12:44:58.653Z,21.10
2022-08-30T12:47:30.959Z,20.80
2022-08-30T12:49:58.955Z,20.60
2022-08-30T12:52:36.969Z,20.70
2022-08-30T12:55:20.854Z,20.80
2022-08-30T12:58:10.062Z,20.80
2022-08-30T13:00:38.662Z,20.80
2022-08-30T13:03:30.010Z,20.80
2022-08-30T13:05:57.910Z,20.90
2022-08-30T13:08:38.133Z,20.80
2022-08-30T13:11:25.049Z,20.60
2022-08-30T13:14:21.208Z,20.50
2022-08-30T13:16:49.370Z,20.40
2022-08-30T13:19:43.006Z,20.30
2022-08-30T13:22:30.038Z,20.20
2022-08-30T13:24:57.891Z,20.20
2022-08-30T13:27:26.358Z,20.20
2022-08-30T13:29:53.568Z,20.40
2022-08-30T13:32:21.724Z,20.60
2022-08-30T13:34:48.718Z,20.70
2022-08-30T13:40:13.105Z,21.10
2022-08-30T13:42:43.182Z,21.10
2022-08-30T13:48:02.142Z,20.90
2022-08-30T13:50:30.595Z,20.90
2022-08-30T13:52:57.781Z,21.00
2022-08-30T13:55:25.128Z,21.10
2022-08-30T13:57:53.909Z,20.90
2022-08-30T14:00:22.454Z,21.00
2022-08-30T14:02:54.781Z,21.00
2022-08-30T14:11:06.421Z,21.10
2022-08-30T14:13:33.837Z,21.20
2022-08-30T14:18:51.680Z,21.20
2022-08-30T14:21:21.296Z,21.20
2022-08-30T14:23:51.387Z,21.10
2022-08-30T14:26:24.491Z,21.00
2022-08-30T14:28:53.217Z,20.90
2022-08-30T14:31:20.511Z,20.90
2022-08-30T14:33:48.358Z,20.90
2022-08-30T14:36:16.275Z,20.90
2022-08-30T14:38:44.144Z,20.90
2022-08-30T14:41:11.912Z,20.90
2022-08-30T14:43:41.324Z,21.00
2022-08-30T14:46:10.010Z,21.00
2022-08-30T14:48:38.565Z,21.00
2022-08-30T14:51:17.839Z,21.00
2022-08-30T14:53:45.781Z,21.10
2022-08-30T14:56:16.865Z,21.20
2022-08-30T14:58:52.917Z,21.10
2022-08-30T15:01:20.641Z,21.10
2022-08-30T15:03:48.041Z,21.00
2022-08-30T15:06:16.789Z,20.90
2022-08-30T15:08:43.812Z,20.90
2022-08-30T15:11:17.973Z,21.00
2022-08-30T15:13:45.885Z,21.00
2022-08-30T15:16:18.530Z,20.90
2022-08-30T15:18:47.365Z,20.70
2022-08-30T15:21:15.032Z,20.50
2022-08-30T15:23:42.703Z,20.40
2022-08-30T15:26:14.714Z,20.20
2022-08-30T15:28:41.736Z,20.10
2022-08-30T15:31:09.576Z,20.00
2022-08-30T15:33:38.784Z,20.00
2022-08-30T15:36:09.112Z,20.00
2022-08-30T15:38:37.320Z,20.00
2022-08-30T15:41:13.006Z,19.90
2022-08-30T15:43:42.647Z,19.90
2022-08-30T15:48:55.388Z,19.80
2022-08-30T15:53:52.463Z,19.60
2022-08-30T15:56:20.978Z,19.50
2022-08-30T15:58:48.403Z,19.40
2022-08-30T16:01:17.206Z,19.20
2022-08-30T16:03:47.110Z,19.10
2022-08-30T16:06:18.723Z,18.90
2022-08-30T16:08:46.425Z,18.80
2022-08-30T16:11:16.234Z,18.80
2022-08-30T16:13:45.949Z,18.70
2022-08-30T16:16:17.235Z,18.70
2022-08-30T16:18:44.347Z,18.60
2022-08-30T16:21:18.383Z,18.50
2022-08-30T16:23:48.272Z,18.40
2022-08-30T16:26:20.923Z,18.40
2022-08-30T16:28:49.416Z,18.40
2022-08-30T16:31:18.272Z,18.30
2022-08-30T16:33:47.123Z,18.30
2022-08-30T16:36:20.262Z,18.30
2022-08-30T16:41:21.410Z,18.10
2022-08-30T16:43:50.262Z,18.00
2022-08-30T16:46:23.400Z,17.90
2022-08-30T16:48:56.500Z,17.80
2022-08-30T16:51:25.389Z,17.80
2022-08-30T16:53:56.000Z,17.80
2022-08-30T16:56:26.688Z,17.70
2022-08-30T16:59:00.815Z,17.70
2022-08-30T17:01:31.954Z,17.60
2022-08-30T17:03:59.551Z,17.60
2022-08-30T17:06:27.469Z,17.40
2022-08-30T17:08:56.743Z,17.40
2022-08-30T17:11:25.045Z,17.40
2022-08-30T17:13:52.654Z,17.40
2022-08-30T17:16:27.580Z,17.40
2022-08-30T17:18:59.862Z,17.30
2022-08-30T17:21:29.641Z,17.10
2022-08-30T17:24:01.622Z,16.90
2022-08-30T17:26:34.360Z,16.80
2022-08-30T17:29:01.560Z,16.70
2022-08-30T17:31:31.155Z,16.70
2022-08-30T17:34:03.218Z,16.70
2022-08-30T17:36:36.601Z,16.60
2022-08-30T17:39:10.401Z,16.60
2022-08-30T17:41:49.166Z,16.60
2022-08-30T17:44:20.272Z,16.50
2022-08-30T17:46:47.452Z,16.50
2022-08-30T17:49:15.081Z,16.50
2022-08-30T17:51:44.399Z,16.40
2022-08-30T17:54:13.092Z,16.40
2022-08-30T17:56:42.218Z,16.50
2022-08-30T17:59:14.977Z,16.30
2022-08-30T18:01:42.951Z,16.30
2022-08-30T18:04:11.737Z,16.30
2022-08-30T18:06:40.591Z,16.20
2022-08-30T18:09:09.886Z,16.20
2022-08-30T18:11:40.134Z,16.20
2022-08-30T18:14:10.993Z,16.20
2022-08-30T18:16:47.437Z,16.20
2022-08-30T18:19:20.309Z,16.20
2022-08-30T18:21:47.660Z,16.20
2022-08-30T18:24:16.890Z,16.20
2022-08-30T18:26:44.419Z,16.20
2022-08-30T18:29:11.758Z,16.30
2022-08-30T18:31:39.522Z,16.20
2022-08-30T18:34:12.398Z,16.20
2022-08-30T18:36:42.238Z,16.20
2022-08-30T18:39:10.731Z,16.20
2022-08-30T18:41:43.134Z,16.10
2022-08-30T18:44:27.341Z,16.00
2022-08-30T18:46:57.223Z,16.00
2022-08-30T18:49:43.911Z,16.00
2022-08-30T18:52:11.210Z,16.00
2022-08-30T18:54:41.317Z,16.00
2022-08-30T18:57:09.795Z,16.00
2022-08-30T18:59:37.812Z,16.00
2022-08-30T19:02:09.405Z,16.00
2022-08-30T19:04:36.943Z,16.10
2022-08-30T19:07:06.756Z,16.10
2022-08-30T19:09:34.283Z,16.10
2022-08-30T19:12:01.264Z,16.10
2022-08-30T19:14:28.660Z,16.10
2022-08-30T19:16:56.696Z,16.10
2022-08-30T19:19:24.417Z,16.10
2022-08-30T19:21:52.075Z,16.10
2022-08-30T19:24:22.154Z,16.10
2022-08-30T19:26:49.120Z,16.10
2022-08-30T19:29:16.394Z,16.10
2022-08-30T19:31:44.034Z,16.10
2022-08-30T19:34:11.197Z,16.00
2022-08-30T19:36:40.178Z,15.90
2022-08-30T19:39:07.323Z,15.80
2022-08-30T19:41:34.452Z,15.80
2022-08-30T19:44:03.372Z,15.80
2022-08-30T19:46:32.334Z,15.70
2022-08-30T19:49:03.983Z,15.80
2022-08-30T19:51:31.437Z,15.70
2022-08-30T19:53:59.134Z,15.70
2022-08-30T19:56:26.785Z,15.70
2022-08-30T19:58:54.441Z,15.70
2022-08-30T20:01:33.044Z,15.60
2022-08-30T20:04:02.339Z,15.60
2022-08-30T20:06:30.567Z,15.60
2022-08-30T20:08:58.289Z,15.60
2022-08-30T20:11:27.949Z,15.50
2022-08-30T20:13:55.273Z,15.50
2022-08-30T20:16:33.273Z,15.50
2022-08-30T20:19:06.145Z,15.50
2022-08-30T20:21:34.052Z,15.50
2022-08-30T20:24:03.935Z,15.50
2022-08-30T20:26:34.039Z,15.50
2022-08-30T20:29:03.966Z,15.50
2022-08-30T20:31:31.587Z,15.50
2022-08-30T20:34:00.485Z,15.50
2022-08-30T20:36:28.133Z,15.40
2022-08-30T20:38:56.317Z,15.40
2022-08-30T20:41:27.121Z,15.40
2022-08-30T20:43:54.376Z,15.40
2022-08-30T20:46:21.558Z,15.30
2022-08-30T20:48:48.755Z,15.40
2022-08-30T20:51:19.172Z,15.40
2022-08-30T20:53:47.575Z,15.30
2022-08-30T20:56:19.235Z,15.30
2022-08-30T20:58:46.894Z,15.30
2022-08-30T21:01:16.588Z,15.30
2022-08-30T21:03:45.238Z,15.20
2022-08-30T21:06:12.652Z,15.20
2022-08-30T21:08:40.317Z,15.20
2022-08-30T21:11:07.281Z,15.10
2022-08-30T21:13:34.547Z,15.10
2022-08-30T21:16:03.495Z,15.00
2022-08-30T21:18:33.108Z,15.00
2022-08-30T21:21:14.882Z,15.00
2022-08-30T21:23:42.920Z,14.90
2022-08-30T21:26:11.190Z,14.90
2022-08-30T21:28:38.827Z,14.90
2022-08-30T21:31:12.867Z,14.90
2022-08-30T21:33:41.173Z,14.80
2022-08-30T21:36:28.186Z,14.90
2022-08-30T21:39:00.574Z,14.80
2022-08-30T21:41:28.655Z,14.80
2022-08-30T21:43:58.109Z,14.90
2022-08-30T21:46:26.310Z,14.90
2022-08-30T21:48:53.939Z,14.80
2022-08-30T21:51:21.420Z,14.80
2022-08-30T21:53:48.514Z,14.80
2022-08-30T21:56:21.916Z,14.80
2022-08-30T21:58:50.082Z,14.80
2022-08-30T22:01:26.100Z,14.80
2022-08-30T22:03:55.522Z,14.90
2022-08-30T22:06:25.270Z,14.80
2022-08-30T22:09:01.158Z,14.80
2022-08-30T22:11:31.670Z,14.80
2022-08-30T22:13:59.231Z,14.80
2022-08-30T22:16:28.618Z,14.70
2022-08-30T22:18:55.591Z,14.60
2022-08-30T22:21:25.441Z,14.60
2022-08-30T22:23:52.653Z,14.60
2022-08-30T22:26:20.843Z,14.60
2022-08-30T22:28:48.328Z,14.60
2022-08-30T22:31:17.494Z,14.60
2022-08-30T22:33:45.282Z,14.60
2022-08-30T22:36:15.537Z,14.60
2022-08-30T22:38:43.220Z,14.60
2022-08-30T22:41:17.451Z,14.60
2022-08-30T22:43:44.956Z,14.60
2022-08-30T22:46:12.585Z,14.60
2022-08-30T22:48:42.783Z,14.60
2022-08-30T22:51:11.095Z,14.60
2022-08-30T22:53:38.771Z,14.50
2022-08-30T22:56:11.634Z,14.50
2022-08-30T22:58:38.803Z,14.50
2022-08-30T23:01:06.761Z,14.50
2022-08-30T23:03:35.261Z,14.50
2022-08-30T23:06:03.046Z,14.50
2022-08-30T23:08:30.141Z,14.50
2022-08-30T23:10:58.052Z,14.40
2022-08-30T23:13:26.129Z,14.50
2022-08-30T23:15:53.089Z,14.50
2022-08-30T23:18:20.062Z,14.40
2022-08-30T23:20:47.141Z,14.40
2022-08-30T23:23:32.585Z,14.40
2022-08-30T23:26:22.128Z,14.40
2022-08-30T23:29:07.363Z,14.50
2022-08-30T23:31:54.193Z,14.50
2022-08-30T23:34:39.684Z,14.40
2022-08-30T23:37:25.386Z,14.40
2022-08-30T23:40:10.824Z,14.40
2022-08-30T23:42:56.332Z,14.30
2022-08-30T23:45:41.840Z,14.30
2022-08-30T23:48:27.588Z,14.20
2022-08-30T23:51:21.891Z,14.20
2022-08-30T23:54:07.860Z,14.20
2022-08-30T23:56:53.843Z,14.20
2022-08-30T23:59:39.055Z,14.20
